createdAt,value
2023-03-20T00:01:56.241Z,11.33
2023-03-20T00:04:23.051Z,12.00
2023-03-20T00:06:49.479Z,11.60
2023-03-20T00:09:16.051Z,11.27
2023-03-20T00:11:49.791Z,11.47
2023-03-20T00:14:19.036Z,10.80
2023-03-20T00:16:47.554Z,11.67
2023-03-20T00:19:23.091Z,11.80
2023-03-20T00:21:51.018Z,11.40
2023-03-20T00:24:17.750Z,12.67
2023-03-20T00:26:46.465Z,11.57
2023-03-20T00:29:27.654Z,10.70
2023-03-20T00:31:55.472Z,12.40
2023-03-20T00:34:25.696Z,10.90
2023-03-20T00:36:53.128Z,12.30
2023-03-20T00:39:20.316Z,11.43
2023-03-20T00:41:57.472Z,10.57
2023-03-20T00:44:32.521Z,10.60
2023-03-20T00:47:05.631Z,11.17
2023-03-20T00:49:34.385Z,10.83
2023-03-20T00:52:02.394Z,10.20
2023-03-20T00:54:29.263Z,10.07
2023-03-20T00:57:07.446Z,9.80
2023-03-20T00:59:37.896Z,10.03
2023-03-20T01:02:04.510Z,9.20
2023-03-20T01:04:42.189Z,10.20
2023-03-20T01:07:13.978Z,9.63
2023-03-20T01:09:40.579Z,9.90
2023-03-20T01:12:07.882Z,10.13
2023-03-20T01:14:34.900Z,9.40
2023-03-20T01:17:01.441Z,10.17
2023-03-20T01:19:27.896Z,9.87
2023-03-20T01:21:54.412Z,9.40
2023-03-20T01:24:21.239Z,9.73
2023-03-20T01:26:47.844Z,10.03
2023-03-20T01:29:21.801Z,11.23
2023-03-20T01:31:49.922Z,10.50
2023-03-20T01:34:16.893Z,10.70
2023-03-20T01:36:51.422Z,11.00
2023-03-20T01:39:19.201Z,9.70
2023-03-20T01:41:47.238Z,9.00
2023-03-20T01:44:30.535Z,11.20
2023-03-20T01:46:58.220Z,10.30
2023-03-20T01:49:24.651Z,10.40
2023-03-20T01:51:52.425Z,11.00
2023-03-20T01:54:33.672Z,10.90
2023-03-20T01:57:03.359Z,10.83
2023-03-20T01:59:35.668Z,10.10
2023-03-20T02:02:02.229Z,10.60
2023-03-20T02:04:34.465Z,10.87
2023-03-20T02:07:01.212Z,11.40
2023-03-20T02:09:27.701Z,10.00
2023-03-20T02:11:56.162Z,10.60
2023-03-20T02:14:23.508Z,10.67
2023-03-20T02:16:50.239Z,10.00
2023-03-20T02:19:29.542Z,10.77
2023-03-20T02:22:05.085Z,11.07
2023-03-20T02:24:51.734Z,10.70
2023-03-20T02:27:43.021Z,11.73
2023-03-20T02:30:24.327Z,10.53
2023-03-20T02:33:33.225Z,11.50
2023-03-20T02:36:37.578Z,10.27
2023-03-20T02:39:28.034Z,11.23
2023-03-20T02:42:13.635Z,10.77
2023-03-20T02:45:23.889Z,11.10
2023-03-20T02:48:10.163Z,11.60
2023-03-20T02:50:47.529Z,11.57
2023-03-20T02:53:17.097Z,12.43
2023-03-20T02:55:44.062Z,11.27
2023-03-20T02:58:25.942Z,12.40
2023-03-20T03:01:01.596Z,13.20
2023-03-20T03:03:34.356Z,14.03
2023-03-20T03:06:19.068Z,13.20
2023-03-20T03:08:55.804Z,14.40
2023-03-20T03:11:22.451Z,12.47
2023-03-20T03:13:52.977Z,11.83
2023-03-20T03:16:32.652Z,12.33
2023-03-20T03:19:07.996Z,11.10
2023-03-20T03:21:37.473Z,10.27
2023-03-20T03:24:04.384Z,11.60
2023-03-20T03:26:37.338Z,10.93
2023-03-20T03:29:11.670Z,11.37
2023-03-20T03:31:38.454Z,12.53
2023-03-20T03:34:05.262Z,10.90
2023-03-20T03:36:41.327Z,10.70
2023-03-20T03:39:16.573Z,11.20
2023-03-20T03:41:52.112Z,12.00
2023-03-20T03:44:45.200Z,12.10
2023-03-20T03:47:19.946Z,12.27
2023-03-20T03:49:52.309Z,13.10
2023-03-20T03:52:23.418Z,13.10
2023-03-20T03:54:56.208Z,12.10
2023-03-20T03:57:31.292Z,13.43
2023-03-20T03:59:59.958Z,13.03
2023-03-20T04:02:27.148Z,13.50
2023-03-20T04:04:55.151Z,13.37
2023-03-20T04:07:21.622Z,14.27
2023-03-20T04:09:48.142Z,13.20
2023-03-20T04:12:40.679Z,14.63
2023-03-20T04:15:07.922Z,14.67
2023-03-20T04:17:34.719Z,13.90
2023-03-20T04:20:01.446Z,13.20
2023-03-20T04:22:27.973Z,14.00
2023-03-20T04:24:54.448Z,14.47
2023-03-20T04:27:21.571Z,13.20
2023-03-20T04:29:48.080Z,14.90
2023-03-20T04:32:14.540Z,15.47
2023-03-20T04:34:41.257Z,14.03
2023-03-20T04:37:08.513Z,15.20
2023-03-20T04:39:36.780Z,14.80
2023-03-20T04:42:05.520Z,15.80
2023-03-20T04:44:32.143Z,15.53
2023-03-20T04:46:58.679Z,15.90
2023-03-20T04:49:25.094Z,15.40
2023-03-20T04:51:51.576Z,15.03
2023-03-20T04:54:18.017Z,15.53
2023-03-20T04:56:44.593Z,15.53
2023-03-20T04:59:11.007Z,15.30
2023-03-20T05:01:37.625Z,14.70
2023-03-20T05:04:04.224Z,15.03
2023-03-20T05:06:34.058Z,15.30
2023-03-20T05:09:00.982Z,14.20
2023-03-20T05:11:27.768Z,14.93
2023-03-20T05:13:54.715Z,14.03
2023-03-20T05:16:21.222Z,15.87
2023-03-20T05:18:48.127Z,14.93
2023-03-20T05:21:14.868Z,14.03
2023-03-20T05:23:41.310Z,13.57
2023-03-20T05:26:07.860Z,13.60
2023-03-20T05:28:34.337Z,13.67
2023-03-20T05:31:00.897Z,14.40
2023-03-20T05:33:27.437Z,13.30
2023-03-20T05:35:53.976Z,13.60
2023-03-20T05:38:22.771Z,15.33
2023-03-20T05:40:59.765Z,14.17
2023-03-20T05:43:28.108Z,13.97
2023-03-20T05:45:56.288Z,14.10
2023-03-20T05:48:23.950Z,12.83
2023-03-20T05:50:50.943Z,13.47
2023-03-20T05:53:17.461Z,14.03
2023-03-20T05:55:44.741Z,13.77
2023-03-20T05:58:12.130Z,14.70
2023-03-20T06:00:39.550Z,15.00
2023-03-20T06:03:06.962Z,14.27
2023-03-20T06:05:34.646Z,14.70
2023-03-20T06:08:01.670Z,15.80
2023-03-20T06:10:30.064Z,15.17
2023-03-20T06:12:57.693Z,15.77
2023-03-20T06:15:24.411Z,15.77
2023-03-20T06:17:50.872Z,16.90
2023-03-20T06:20:17.808Z,16.73
2023-03-20T06:22:44.906Z,17.20
2023-03-20T06:25:11.426Z,16.77
2023-03-20T06:27:38.089Z,16.30
2023-03-20T06:30:04.978Z,16.60
2023-03-20T06:32:32.320Z,15.13
2023-03-20T06:34:58.819Z,16.70
2023-03-20T06:37:25.637Z,15.67
2023-03-20T06:39:52.119Z,15.20
2023-03-20T06:42:18.650Z,14.77
2023-03-20T06:44:45.099Z,15.57
2023-03-20T06:47:11.566Z,14.67
2023-03-20T06:49:38.008Z,14.40
2023-03-20T06:52:04.993Z,15.13
2023-03-20T06:54:31.593Z,15.37
2023-03-20T06:56:58.123Z,15.37
2023-03-20T06:59:24.578Z,14.50
2023-03-20T07:01:51.041Z,14.67
2023-03-20T07:04:17.518Z,14.00
2023-03-20T07:06:44.140Z,12.70
2023-03-20T07:09:10.673Z,11.50
2023-03-20T07:11:37.139Z,11.73
2023-03-20T07:14:03.607Z,11.90
2023-03-20T07:16:30.108Z,13.00
2023-03-20T07:18:56.619Z,12.20
2023-03-20T07:21:23.283Z,11.20
2023-03-20T07:23:49.800Z,11.60
2023-03-20T07:26:16.942Z,11.50
2023-03-20T07:28:43.501Z,11.53
2023-03-20T07:31:19.913Z,11.30
2023-03-20T07:33:46.717Z,10.70
2023-03-20T07:36:15.373Z,10.20
2023-03-20T07:38:41.813Z,10.57
2023-03-20T07:41:08.530Z,11.70
2023-03-20T07:43:34.999Z,10.50
2023-03-20T07:46:07.356Z,9.97
2023-03-20T07:48:34.580Z,11.20
2023-03-20T07:51:01.044Z,10.33
2023-03-20T07:53:27.929Z,11.50
2023-03-20T07:55:54.402Z,12.00
2023-03-20T07:58:20.931Z,12.17
2023-03-20T08:00:47.417Z,12.10
2023-03-20T08:03:14.075Z,10.87
2023-03-20T08:05:40.880Z,13.53
2023-03-20T08:08:07.483Z,11.40
2023-03-20T08:10:34.075Z,11.60
2023-03-20T08:13:00.609Z,10.80
2023-03-20T08:15:27.098Z,11.63
2023-03-20T08:17:53.583Z,11.10
2023-03-20T08:20:20.188Z,10.73
2023-03-20T08:22:47.092Z,11.53
2023-03-20T08:25:13.654Z,10.80
2023-03-20T08:27:40.141Z,10.10
2023-03-20T08:30:07.227Z,10.57
2023-03-20T08:32:33.806Z,9.60
2023-03-20T08:35:00.342Z,9.77
2023-03-20T08:37:28.577Z,10.07
2023-03-20T08:39:55.147Z,10.47
2023-03-20T08:42:21.767Z,9.87
2023-03-20T08:44:48.337Z,10.53
2023-03-20T08:47:14.810Z,9.30
2023-03-20T08:49:41.330Z,11.33
2023-03-20T08:52:07.858Z,10.30
2023-03-20T08:54:34.457Z,8.90
2023-03-20T08:57:00.953Z,8.27
2023-03-20T08:59:27.483Z,8.60
2023-03-20T09:01:54.024Z,8.80
2023-03-20T09:04:20.528Z,8.27
2023-03-20T09:06:47.736Z,8.27
2023-03-20T09:09:15.881Z,8.37
2023-03-20T09:11:42.511Z,8.00
2023-03-20T09:14:08.956Z,9.10
2023-03-20T09:16:35.542Z,7.70
2023-03-20T09:19:02.116Z,7.43
2023-03-20T09:21:28.553Z,7.70
2023-03-20T09:23:55.042Z,6.77
2023-03-20T09:26:21.585Z,7.10
2023-03-20T09:28:48.056Z,6.90
2023-03-20T09:31:14.596Z,6.37
2023-03-20T09:33:41.257Z,7.13
2023-03-20T09:36:11.370Z,7.77
2023-03-20T09:38:38.112Z,6.73
2023-03-20T09:41:05.408Z,6.90
2023-03-20T09:43:53.254Z,7.03
2023-03-20T09:46:49.420Z,6.87
2023-03-20T09:49:46.544Z,6.90
2023-03-20T09:52:28.532Z,6.73
2023-03-20T09:54:58.495Z,5.70
2023-03-20T09:57:43.273Z,6.20
2023-03-20T10:00:17.411Z,5.40
2023-03-20T10:02:59.414Z,5.17
2023-03-20T10:05:25.820Z,3.60
2023-03-20T10:08:00.873Z,5.43
2023-03-20T10:10:42.648Z,3.70
2023-03-20T10:13:39.277Z,3.93
2023-03-20T10:16:28.379Z,3.77
2023-03-20T10:19:07.190Z,3.47
2023-03-20T10:21:46.056Z,3.63
2023-03-20T10:24:36.005Z,4.03
2023-03-20T10:27:10.358Z,3.47
2023-03-20T10:29:54.421Z,4.00
2023-03-20T10:32:34.951Z,3.90
2023-03-20T10:35:25.049Z,3.37
2023-03-20T10:38:04.809Z,3.00
2023-03-20T10:40:38.476Z,3.67
2023-03-20T10:43:21.363Z,3.50
2023-03-20T10:45:57.571Z,3.33
2023-03-20T10:48:33.826Z,3.43
2023-03-20T10:51:03.237Z,3.50
2023-03-20T10:53:37.283Z,3.53
2023-03-20T10:56:09.171Z,3.43
2023-03-20T10:58:40.500Z,3.83
2023-03-20T11:01:07.834Z,4.53
2023-03-20T11:03:39.549Z,3.40
2023-03-20T11:06:34.506Z,3.43
2023-03-20T11:09:17.000Z,4.20
2023-03-20T11:11:46.981Z,4.50
2023-03-20T11:14:22.976Z,4.63
2023-03-20T11:16:51.996Z,3.90
2023-03-20T11:19:21.310Z,5.03
2023-03-20T11:21:56.999Z,4.80
2023-03-20T11:24:36.922Z,3.53
2023-03-20T11:27:09.511Z,4.83
2023-03-20T11:29:37.002Z,5.17
2023-03-20T11:32:35.832Z,4.40
2023-03-20T11:35:20.488Z,4.87
2023-03-20T11:37:52.022Z,3.53
2023-03-20T11:40:22.930Z,3.77
2023-03-20T11:43:02.872Z,5.00
2023-03-20T11:45:36.834Z,4.90
2023-03-20T11:48:05.014Z,4.80
2023-03-20T11:50:35.227Z,4.27
2023-03-20T11:53:04.557Z,4.07
2023-03-20T11:55:33.886Z,4.03
2023-03-20T11:58:04.093Z,4.50
2023-03-20T12:00:38.428Z,4.10
2023-03-20T12:03:33.648Z,3.70
2023-03-20T12:06:00.735Z,3.57
2023-03-20T12:08:31.847Z,3.20
2023-03-20T12:11:26.580Z,3.10
2023-03-20T12:13:56.853Z,3.50
2023-03-20T12:16:25.676Z,4.03
2023-03-20T12:18:57.484Z,3.60
2023-03-20T12:21:36.055Z,3.83
2023-03-20T12:24:06.686Z,3.67
2023-03-20T12:26:48.326Z,3.63
2023-03-20T12:29:31.675Z,3.80
2023-03-20T12:32:08.713Z,3.70
2023-03-20T12:34:41.529Z,3.70
2023-03-20T12:37:12.168Z,3.13
2023-03-20T12:39:44.889Z,3.30
2023-03-20T12:42:36.376Z,3.40
2023-03-20T12:45:13.831Z,3.40
2023-03-20T12:48:02.169Z,3.97
2023-03-20T12:50:28.666Z,3.53
2023-03-20T12:53:16.680Z,2.90
2023-03-20T12:56:07.555Z,3.57
2023-03-20T12:58:44.184Z,3.30
2023-03-20T13:01:19.370Z,3.07
2023-03-20T13:03:52.658Z,3.00
2023-03-20T13:06:44.548Z,2.73
2023-03-20T13:09:25.764Z,3.20
2023-03-20T13:12:00.928Z,3.30
2023-03-20T13:14:27.314Z,3.10
2023-03-20T13:16:56.844Z,3.20
2023-03-20T13:19:23.319Z,2.77
2023-03-20T13:22:02.800Z,2.90
2023-03-20T13:24:49.739Z,3.07
2023-03-20T13:27:23.731Z,3.27
2023-03-20T13:29:53.717Z,3.43
2023-03-20T13:32:46.106Z,4.30
2023-03-20T13:35:44.708Z,3.23
2023-03-20T13:38:18.856Z,3.60
2023-03-20T13:40:49.328Z,3.80
2023-03-20T13:43:31.746Z,3.60
2023-03-20T13:46:14.691Z,3.50
2023-03-20T13:48:42.952Z,4.13
2023-03-20T13:51:34.660Z,3.30
2023-03-20T13:54:46.006Z,4.63
2023-03-20T13:57:33.640Z,3.60
2023-03-20T14:00:12.403Z,3.77
2023-03-20T14:03:07.511Z,3.53
2023-03-20T14:05:39.581Z,3.83
2023-03-20T14:08:38.423Z,4.00
2023-03-20T14:11:13.939Z,4.07
2023-03-20T14:13:47.599Z,4.97
2023-03-20T14:16:16.881Z,3.60
2023-03-20T14:18:45.850Z,3.53
2023-03-20T14:21:15.276Z,3.30
2023-03-20T14:23:50.523Z,3.63
2023-03-20T14:26:28.802Z,3.17
2023-03-20T14:28:58.123Z,3.20
2023-03-20T14:31:32.772Z,3.20
2023-03-20T14:34:24.619Z,4.43
2023-03-20T14:37:05.110Z,3.43
2023-03-20T14:40:00.635Z,3.50
2023-03-20T14:42:50.646Z,4.00
2023-03-20T14:45:17.126Z,4.33
2023-03-20T14:47:59.419Z,4.97
2023-03-20T14:50:47.930Z,4.80
2023-03-20T14:53:27.544Z,3.73
2023-03-20T14:55:57.042Z,4.40
2023-03-20T14:58:43.268Z,4.73
2023-03-20T15:01:24.698Z,4.60
2023-03-20T15:04:02.206Z,4.03
2023-03-20T15:06:29.571Z,5.20
2023-03-20T15:08:59.928Z,3.50
2023-03-20T15:11:26.987Z,4.10
2023-03-20T15:13:54.442Z,5.00
2023-03-20T15:16:30.121Z,3.90
2023-03-20T15:18:56.665Z,4.00
2023-03-20T15:21:38.935Z,4.40
2023-03-20T15:24:05.835Z,3.50
2023-03-20T15:26:34.912Z,3.90
2023-03-20T15:29:07.879Z,3.93
2023-03-20T15:31:38.385Z,4.53
2023-03-20T15:34:25.394Z,3.43
2023-03-20T15:36:55.987Z,3.50
2023-03-20T15:39:28.705Z,3.40
2023-03-20T15:41:56.867Z,4.03
2023-03-20T15:44:28.346Z,3.33
2023-03-20T15:47:04.077Z,3.87
2023-03-20T15:49:33.556Z,3.80
2023-03-20T15:52:05.584Z,3.83
2023-03-20T15:54:33.993Z,3.43
2023-03-20T15:57:02.454Z,4.10
2023-03-20T15:59:32.641Z,4.10
2023-03-20T16:02:00.863Z,3.30
2023-03-20T16:04:28.131Z,4.20
2023-03-20T16:06:58.281Z,4.03
2023-03-20T16:09:25.541Z,3.43
2023-03-20T16:11:58.621Z,3.87
2023-03-20T16:14:27.514Z,4.37
2023-03-20T16:16:56.086Z,3.27
2023-03-20T16:19:24.646Z,3.80
2023-03-20T16:21:54.626Z,3.50
2023-03-20T16:24:36.126Z,3.77
2023-03-20T16:27:07.956Z,5.80
2023-03-20T16:29:34.828Z,7.73
2023-03-20T16:32:20.976Z,3.20
2023-03-20T16:34:51.370Z,3.90
2023-03-20T16:37:48.895Z,3.50
2023-03-20T16:40:28.572Z,4.40
2023-03-20T16:42:57.221Z,3.97
2023-03-20T16:45:33.318Z,4.07
2023-03-20T16:48:23.283Z,3.50
2023-03-20T16:50:56.932Z,3.00
2023-03-20T16:53:24.900Z,3.20
2023-03-20T16:55:54.769Z,3.80
2023-03-20T16:58:24.017Z,4.00
2023-03-20T17:01:06.133Z,3.43
2023-03-20T17:03:48.124Z,3.30
2023-03-20T17:06:23.746Z,3.57
2023-03-20T17:08:53.269Z,3.70
2023-03-20T17:11:29.668Z,4.03
2023-03-20T17:13:56.164Z,3.53
2023-03-20T17:16:24.320Z,4.07
2023-03-20T17:19:01.195Z,3.43
2023-03-20T17:21:28.204Z,3.80
2023-03-20T17:23:54.687Z,3.23
2023-03-20T17:26:21.472Z,3.00
2023-03-20T17:28:47.932Z,3.80
2023-03-20T17:31:16.395Z,3.57
2023-03-20T17:33:45.126Z,3.40
2023-03-20T17:36:24.792Z,4.27
2023-03-20T17:38:51.291Z,3.60
2023-03-20T17:41:19.501Z,4.20
2023-03-20T17:43:46.382Z,3.73
2023-03-20T17:46:26.542Z,4.10
2023-03-20T17:48:58.617Z,4.37
2023-03-20T17:51:25.477Z,4.00
2023-03-20T17:53:57.676Z,3.63
2023-03-20T17:56:32.593Z,3.83
2023-03-20T17:59:02.867Z,4.20
2023-03-20T18:01:32.632Z,3.67
2023-03-20T18:03:59.487Z,3.50
2023-03-20T18:06:31.809Z,3.90
2023-03-20T18:08:59.519Z,3.33
2023-03-20T18:11:27.314Z,3.20
2023-03-20T18:13:53.805Z,3.80
2023-03-20T18:16:25.436Z,3.27
2023-03-20T18:18:52.634Z,3.80
2023-03-20T18:21:19.628Z,3.80
2023-03-20T18:23:46.521Z,3.50
2023-03-20T18:26:25.172Z,4.47
2023-03-20T18:28:53.000Z,3.97
2023-03-20T18:31:20.612Z,3.77
2023-03-20T18:33:52.974Z,3.50
2023-03-20T18:36:22.585Z,3.33
2023-03-20T18:38:50.057Z,3.77
2023-03-20T18:41:16.645Z,3.80
2023-03-20T18:43:43.475Z,11.70
2023-03-20T18:46:14.999Z,5.17
2023-03-20T18:48:42.059Z,3.97
2023-03-20T18:51:08.587Z,3.63
2023-03-20T18:53:35.143Z,3.47
2023-03-20T18:56:01.714Z,3.30
2023-03-20T18:58:29.790Z,2.80
2023-03-20T19:00:59.595Z,3.27
2023-03-20T19:03:28.524Z,4.20
2023-03-20T19:05:57.799Z,3.27
2023-03-20T19:08:24.373Z,3.37
2023-03-20T19:10:51.585Z,3.30
2023-03-20T19:13:20.758Z,3.60
2023-03-20T19:15:47.615Z,3.70
2023-03-20T19:18:26.346Z,4.07
2023-03-20T19:20:55.656Z,3.97
2023-03-20T19:23:24.264Z,3.73
2023-03-20T19:25:53.096Z,3.97
2023-03-20T19:28:37.831Z,3.53
2023-03-20T19:31:06.500Z,3.60
2023-03-20T19:33:33.348Z,3.80
2023-03-20T19:36:03.231Z,3.50
2023-03-20T19:38:31.890Z,3.43
2023-03-20T19:40:59.833Z,4.60
2023-03-20T19:43:28.838Z,4.17
2023-03-20T19:45:58.769Z,2.83
2023-03-20T19:48:46.477Z,3.17
2023-03-20T19:51:16.878Z,4.10
2023-03-20T19:53:44.460Z,3.13
2023-03-20T19:56:11.800Z,3.70
2023-03-20T19:58:39.547Z,3.20
2023-03-20T20:01:14.258Z,3.47
2023-03-20T20:03:41.577Z,4.17
2023-03-20T20:06:08.234Z,3.87
2023-03-20T20:08:46.839Z,4.20
2023-03-20T20:11:15.556Z,4.23
2023-03-20T20:14:03.797Z,3.50
2023-03-20T20:16:29.562Z,3.70
2023-03-20T20:18:56.096Z,3.53
2023-03-20T20:24:09.177Z,3.87
2023-03-20T20:26:40.479Z,3.67
2023-03-20T20:29:11.672Z,3.70
2023-03-20T20:31:38.223Z,3.00
2023-03-20T20:34:58.450Z,3.57
2023-03-20T20:37:42.477Z,4.27
2023-03-20T20:39:37.918Z,3.70
2023-03-20T20:42:05.309Z,4.07
2023-03-20T20:44:31.793Z,3.90
2023-03-20T20:46:58.374Z,3.43
2023-03-20T20:49:24.883Z,3.37
2023-03-20T20:51:51.336Z,3.97
2023-03-20T20:54:17.907Z,3.87
2023-03-20T20:56:44.522Z,4.03
2023-03-20T20:59:11.243Z,4.17
2023-03-20T21:01:37.756Z,3.80
2023-03-20T21:04:04.305Z,4.50
2023-03-20T21:06:59.693Z,6.20
2023-03-20T21:09:17.384Z,4.00
2023-03-20T21:11:43.882Z,3.63
2023-03-20T21:14:10.745Z,4.03
2023-03-20T21:16:37.262Z,3.13
2023-03-20T21:19:03.788Z,3.80
2023-03-20T21:21:30.500Z,3.60
2023-03-20T21:23:57.070Z,3.67
2023-03-20T21:26:23.781Z,3.67
2023-03-20T21:28:51.433Z,4.20
2023-03-20T21:31:27.284Z,3.23
2023-03-20T21:33:54.245Z,4.30
2023-03-20T21:36:21.686Z,3.40
2023-03-20T21:41:37.761Z,4.37
2023-03-20T21:44:08.346Z,3.67
2023-03-20T21:52:59.703Z,3.87
2023-03-20T22:03:43.967Z,3.40
2023-03-20T22:09:45.801Z,3.50
2023-03-20T22:15:20.172Z,3.43
2023-03-20T22:35:04.406Z,3.50
2023-03-20T22:45:10.791Z,3.60
2023-03-20T22:47:37.910Z,3.47
2023-03-20T22:50:05.321Z,3.43
2023-03-20T22:52:45.906Z,3.80
2023-03-20T22:55:16.693Z,3.57
2023-03-20T22:57:52.900Z,3.30
2023-03-20T23:00:29.884Z,3.77
2023-03-20T23:03:03.389Z,4.13
2023-03-20T23:05:39.278Z,3.60
2023-03-20T23:08:07.887Z,3.50
2023-03-20T23:10:37.334Z,3.70
2023-03-20T23:13:04.178Z,2.93
2023-03-20T23:15:31.020Z,3.60
2023-03-20T23:17:57.534Z,3.47
2023-03-20T23:20:24.240Z,3.73
2023-03-20T23:22:51.243Z,4.10
2023-03-20T23:25:30.749Z,3.30
2023-03-20T23:28:04.309Z,3.43
2023-03-20T23:30:37.883Z,3.10
2023-03-20T23:33:10.443Z,3.50
2023-03-20T23:35:37.018Z,3.80
2023-03-20T23:38:03.504Z,4.10
2023-03-20T23:40:31.049Z,4.40
2023-03-20T23:42:57.553Z,3.90
2023-03-20T23:45:24.125Z,4.30
2023-03-20T23:47:50.921Z,4.00
2023-03-20T23:50:30.158Z,4.50
2023-03-20T23:53:13.584Z,4.17
2023-03-20T23:55:47.141Z,4.37
2023-03-20T23:58:14.219Z,4.60
